Time;durP1;ratioP1;P1;durP2;ratioP2;P2;SDS_P1;SDS_P2;PMS_P1;PMS_P2;Temp;Humidity;BMP_temperature;BMP_pressure;BME280_temperature;BME280_humidity;BME280_pressure;Samples;Min_cycle;Max_cycle;Signal;HPM_P1;HPM_P2
2024/03/28 00:01:43;;;;;;;2.20;1.50;;;9.30;99.90;;;;;;4956318;28;20023;-77
2024/03/28 00:04:09;;;;;;;2.53;1.90;;;9.30;99.90;;;;;;4960224;28;20367;-78
2024/03/28 00:06:34;;;;;;;4.97;1.95;;;9.30;99.90;;;;;;4959439;28;20028;-77
2024/03/28 00:09:00;;;;;;;2.67;2.05;;;9.30;99.90;;;;;;4960614;28;20093;-76
2024/03/28 00:11:26;;;;;;;2.45;1.75;;;9.40;99.90;;;;;;4957787;28;20039;-77
2024/03/28 00:13:52;;;;;;;2.42;2.17;;;9.40;99.90;;;;;;4945301;28;20027;-77
2024/03/28 00:16:17;;;;;;;3.47;1.90;;;9.40;99.90;;;;;;4958160;28;20360;-77
2024/03/28 00:18:43;;;;;;;2.65;2.08;;;9.20;99.90;;;;;;4960973;28;20030;-76
2024/03/28 00:21:09;;;;;;;2.10;1.90;;;9.20;99.90;;;;;;4963177;28;20038;-76
2024/03/28 00:23:34;;;;;;;2.33;2.20;;;9.20;99.90;;;;;;4962937;28;20027;-77
2024/03/28 00:26:00;;;;;;;1.85;1.67;;;9.10;99.90;;;;;;4945177;28;20141;-77
2024/03/28 00:28:27;;;;;;;1.63;1.35;;;9.10;99.90;;;;;;4964660;28;20043;-77
2024/03/28 00:30:53;;;;;;;1.60;1.50;;;9.10;99.90;;;;;;4965357;28;20023;-77
2024/03/28 00:33:19;;;;;;;1.58;1.30;;;9.10;99.90;;;;;;4948191;28;20027;-77
2024/03/28 00:35:47;;;;;;;3.05;1.42;;;9.20;99.90;;;;;;4968627;28;20510;-77
2024/03/28 00:38:13;;;;;;;1.50;1.10;;;9.20;99.90;;;;;;4951027;28;20027;-77
2024/03/28 00:40:47;;;;;;;1.20;1.10;;;9.20;99.90;;;;;;4963747;28;20023;-77
2024/03/28 00:43:14;;;;;;;1.40;1.30;;;9.30;99.90;;;;;;4965542;28;20023;-77
2024/03/28 00:45:40;;;;;;;1.27;1.15;;;9.30;99.90;;;;;;4967642;28;20510;-76
2024/03/28 00:48:06;;;;;;;2.78;1.27;;;9.30;99.90;;;;;;4964889;28;20086;-76
2024/03/28 00:50:33;;;;;;;1.65;1.30;;;9.20;99.90;;;;;;4964825;28;20106;-76
2024/03/28 00:52:58;;;;;;;6.72;1.15;;;9.20;99.90;;;;;;4964794;28;20023;-77
2024/03/28 00:55:24;;;;;;;2.35;1.58;;;9.20;99.90;;;;;;4964594;28;20386;-76
2024/03/28 00:57:51;;;;;;;1.38;1.00;;;9.20;99.90;;;;;;4967533;28;20030;-76
2024/03/28 01:00:17;;;;;;;1.60;1.02;;;9.20;99.90;;;;;;4965959;28;20035;-76
2024/03/28 01:02:43;;;;;;;3.70;1.35;;;9.20;99.90;;;;;;4967062;28;20059;-76
2024/03/28 01:05:09;;;;;;;1.33;1.23;;;9.20;99.90;;;;;;4965690;28;20554;-77
2024/03/28 01:07:35;;;;;;;1.55;1.00;;;9.30;99.90;;;;;;4948993;28;20031;-76
2024/03/28 01:10:01;;;;;;;0.93;0.90;;;9.30;99.90;;;;;;4966282;28;20031;-76
2024/03/28 01:12:27;;;;;;;2.63;0.90;;;9.20;99.90;;;;;;4967915;28;20042;-76
2024/03/28 01:14:53;;;;;;;2.08;1.20;;;9.30;99.90;;;;;;4966821;28;20019;-76
2024/03/28 01:17:19;;;;;;;1.83;0.80;;;9.30;99.90;;;;;;4964897;28;20394;-76
2024/03/28 01:19:44;;;;;;;1.40;1.00;;;9.30;99.90;;;;;;4967302;28;20038;-76
2024/03/28 01:22:10;;;;;;;1.45;0.80;;;9.30;99.90;;;;;;4964235;28;20467;-76
2024/03/28 01:24:36;;;;;;;5.00;1.13;;;9.30;99.90;;;;;;4967726;28;20446;-76
2024/03/28 01:27:01;;;;;;;1.23;0.70;;;9.30;99.90;;;;;;4964318;28;20038;-76
2024/03/28 01:29:27;;;;;;;1.13;0.70;;;9.10;99.90;;;;;;4965720;28;20077;-76
2024/03/28 01:31:52;;;;;;;1.63;0.60;;;9.10;99.90;;;;;;4966635;28;20471;-76
2024/03/28 01:34:18;;;;;;;0.88;0.88;;;9.20;99.90;;;;;;4965340;28;20085;-76
2024/03/28 01:36:44;;;;;;;1.60;0.80;;;9.10;99.90;;;;;;4965847;28;20027;-76
2024/03/28 01:39:09;;;;;;;2.75;0.85;;;9.00;99.90;;;;;;4948683;28;20497;-76
2024/03/28 01:41:35;;;;;;;1.90;0.85;;;9.00;99.90;;;;;;4964267;28;20031;-76
2024/03/28 01:44:01;;;;;;;1.15;0.85;;;9.00;99.90;;;;;;4966080;28;20306;-76
2024/03/28 01:46:27;;;;;;;2.15;1.20;;;9.00;99.90;;;;;;4963948;28;20141;-76
2024/03/28 01:48:54;;;;;;;2.72;1.10;;;8.90;99.90;;;;;;4967106;28;20027;-76
2024/03/28 01:51:21;;;;;;;1.73;1.20;;;8.90;99.90;;;;;;4963805;28;20097;-76
2024/03/28 01:53:47;;;;;;;1.25;0.90;;;8.80;99.90;;;;;;4949862;28;20078;-76
2024/03/28 01:56:15;;;;;;;1.00;0.80;;;8.80;99.90;;;;;;4967210;28;20074;-76
2024/03/28 01:58:41;;;;;;;2.40;1.20;;;8.80;99.90;;;;;;4962435;28;20031;-76
2024/03/28 02:01:08;;;;;;;3.08;0.90;;;8.80;99.90;;;;;;4953467;28;20034;-76
2024/03/28 02:03:33;;;;;;;3.15;1.20;;;8.80;99.90;;;;;;4964045;28;20028;-76
2024/03/28 02:05:59;;;;;;;1.10;1.00;;;8.70;99.90;;;;;;4969227;28;20540;-76
2024/03/28 02:08:29;;;;;;;1.10;1.10;;;8.80;99.90;;;;;;4965651;28;20025;-76
2024/03/28 02:10:56;;;;;;;1.45;0.88;;;8.70;99.90;;;;;;4949437;28;20455;-76
2024/03/28 02:13:23;;;;;;;2.70;0.90;;;8.70;99.90;;;;;;4965792;28;20027;-76
2024/03/28 02:15:49;;;;;;;1.58;0.90;;;8.60;99.90;;;;;;4965193;28;20024;-76
2024/03/28 02:18:20;;;;;;;4.18;1.30;;;8.60;99.90;;;;;;4964837;28;20030;-76
2024/03/28 02:20:46;;;;;;;4.53;1.07;;;8.60;99.90;;;;;;4965397;28;20027;-76
2024/03/28 02:23:12;;;;;;;2.45;1.10;;;8.60;99.90;;;;;;4951171;28;20625;-76
2024/03/28 02:25:37;;;;;;;4.50;1.38;;;8.60;99.90;;;;;;4947329;28;20118;-76
2024/03/28 02:28:03;;;;;;;3.17;1.40;;;8.60;99.90;;;;;;4965127;28;20023;-76
2024/03/28 02:30:30;;;;;;;3.53;1.08;;;8.60;99.90;;;;;;4959968;28;20023;-76
2024/03/28 02:32:55;;;;;;;3.80;0.98;;;8.60;99.90;;;;;;4965983;28;20475;-76
2024/03/28 02:35:21;;;;;;;2.40;1.23;;;8.50;99.90;;;;;;4963121;28;20106;-76
2024/03/28 02:37:47;;;;;;;7.63;1.60;;;8.50;99.90;;;;;;4966182;28;20034;-76
2024/03/28 02:40:12;;;;;;;1.27;1.13;;;8.50;99.90;;;;;;4962805;28;20032;-76
2024/03/28 02:42:38;;;;;;;6.70;1.50;;;8.50;99.90;;;;;;4964522;28;20510;-76
2024/03/28 02:45:04;;;;;;;3.13;1.45;;;8.40;99.90;;;;;;4962439;28;20500;-76
2024/03/28 02:47:29;;;;;;;2.30;1.35;;;8.40;99.90;;;;;;4947718;28;20031;-76
2024/03/28 02:49:55;;;;;;;2.28;0.95;;;8.40;99.90;;;;;;4946626;28;20019;-76
2024/03/28 02:52:21;;;;;;;3.65;1.17;;;8.40;99.90;;;;;;4964271;28;20027;-76
2024/03/28 02:54:46;;;;;;;3.15;1.40;;;8.40;99.90;;;;;;4964446;28;20019;-76
2024/03/28 02:57:24;;;;;;;4.82;1.60;;;8.30;99.90;;;;;;4963620;28;20023;-76
2024/03/28 02:59:50;;;;;;;3.47;1.75;;;8.30;99.90;;;;;;4960750;28;20122;-76
2024/03/28 03:02:16;;;;;;;2.25;1.02;;;8.30;99.90;;;;;;4963861;28;20639;-76
2024/03/28 03:04:44;;;;;;;3.13;1.10;;;8.20;99.90;;;;;;4946808;28;20034;-76
2024/03/28 03:07:10;;;;;;;2.90;1.38;;;8.20;99.90;;;;;;4946413;28;20027;-76
2024/03/28 03:09:36;;;;;;;5.80;1.67;;;8.20;99.90;;;;;;4963921;28;20387;-76
2024/03/28 03:12:02;;;;;;;3.08;1.30;;;8.20;99.90;;;;;;4965000;28;20030;-76
2024/03/28 03:14:29;;;;;;;4.28;1.55;;;8.20;99.90;;;;;;4948221;28;20023;-77
2024/03/28 03:16:55;;;;;;;4.10;1.40;;;8.20;99.90;;;;;;4947538;28;20517;-77
2024/03/28 03:19:22;;;;;;;3.63;1.35;;;8.10;99.90;;;;;;4962352;28;20023;-77
2024/03/28 03:21:50;;;;;;;1.98;1.30;;;8.10;99.90;;;;;;4947846;28;20502;-76
2024/03/28 03:24:16;;;;;;;4.22;1.33;;;8.20;99.90;;;;;;4944515;28;20030;-76
2024/03/28 03:27:01;;;;;;;5.03;1.90;;;8.10;99.90;;;;;;4961988;28;20024;-76
2024/03/28 03:34:57;;;;;;;3.25;1.38;;;8.00;99.90;;;;;;4964317;28;20046;-77
2024/03/28 03:37:24;;;;;;;2.70;1.13;;;7.90;99.90;;;;;;4962958;28;20027;-76
2024/03/28 03:39:59;;;;;;;1.65;1.20;;;8.00;99.90;;;;;;4946440;28;20403;-77
2024/03/28 03:42:25;;;;;;;3.20;1.02;;;7.90;99.90;;;;;;4964784;28;20027;-76
2024/03/28 03:44:51;;;;;;;1.52;1.33;;;8.00;99.90;;;;;;4961987;28;20479;-77
2024/03/28 03:47:16;;;;;;;2.60;1.38;;;8.00;99.90;;;;;;4946677;28;20043;-77
2024/03/28 03:49:45;;;;;;;4.20;1.50;;;8.00;99.90;;;;;;4962974;28;20031;-77
2024/03/28 03:52:11;;;;;;;2.55;1.20;;;7.90;99.90;;;;;;4963691;28;20027;-76
2024/03/28 03:54:46;;;;;;;3.45;1.45;;;7.90;99.90;;;;;;4957503;28;20034;-76
2024/03/28 03:57:12;;;;;;;3.85;1.10;;;7.80;99.90;;;;;;4964035;28;20153;-78
2024/03/28 03:59:38;;;;;;;4.32;1.40;;;7.80;99.90;;;;;;4965346;28;20015;-77
2024/03/28 04:02:07;;;;;;;2.38;1.23;;;7.90;99.90;;;;;;4961544;28;20030;-76
2024/03/28 04:04:33;;;;;;;4.43;1.27;;;7.80;99.90;;;;;;4963344;28;20090;-77
2024/03/28 04:06:59;;;;;;;2.75;1.50;;;7.80;99.90;;;;;;4960632;28;20091;-77
2024/03/28 04:09:25;;;;;;;9.75;2.00;;;7.80;99.90;;;;;;4962993;28;20113;-77
2024/03/28 04:11:51;;;;;;;7.18;1.90;;;7.70;99.90;;;;;;4967404;28;20086;-77
2024/03/28 04:14:18;;;;;;;2.20;1.45;;;7.70;99.90;;;;;;4959787;28;20035;-77
2024/03/28 04:16:44;;;;;;;2.78;1.38;;;7.80;99.90;;;;;;4963883;28;20019;-77
2024/03/28 04:19:09;;;;;;;6.30;1.90;;;7.80;99.90;;;;;;4964634;28;20058;-76
2024/03/28 04:21:35;;;;;;;3.80;1.52;;;7.80;99.90;;;;;;4943978;28;20065;-76
2024/03/28 04:24:05;;;;;;;7.05;1.92;;;7.80;99.90;;;;;;4964453;28;20066;-76
2024/03/28 04:26:32;;;;;;;4.10;1.45;;;7.80;99.90;;;;;;4943589;28;20483;-76
2024/03/28 04:28:58;;;;;;;5.57;1.90;;;7.80;99.90;;;;;;4947801;28;20041;-77
2024/03/28 04:31:24;;;;;;;3.60;1.58;;;7.80;99.90;;;;;;4961107;28;20051;-77
2024/03/28 04:33:50;;;;;;;3.33;1.70;;;7.80;99.90;;;;;;4961076;28;20054;-77
2024/03/28 04:36:16;;;;;;;3.75;1.50;;;7.80;99.90;;;;;;4964034;28;20027;-77
2024/03/28 04:38:43;;;;;;;8.82;2.30;;;7.70;99.90;;;;;;4960350;28;20587;-77
2024/03/28 04:41:10;;;;;;;2.80;1.58;;;7.70;99.90;;;;;;4944651;28;20054;-77
2024/03/28 04:43:36;;;;;;;6.07;1.77;;;7.70;99.90;;;;;;4947593;28;20086;-77
2024/03/28 04:46:02;;;;;;;4.32;1.80;;;7.70;99.90;;;;;;4962301;28;20047;-77
2024/03/28 04:48:28;;;;;;;5.28;1.90;;;7.90;99.90;;;;;;4962454;28;20031;-77
2024/03/28 04:50:54;;;;;;;5.55;1.80;;;7.80;99.90;;;;;;4962860;28;20168;-77
2024/03/28 04:53:20;;;;;;;5.05;1.60;;;7.80;99.90;;;;;;4961684;28;20024;-77
2024/03/28 04:55:45;;;;;;;5.47;2.00;;;7.80;99.90;;;;;;4963629;28;20027;-77
2024/03/28 04:58:11;;;;;;;2.97;1.60;;;7.80;99.90;;;;;;4961274;28;20031;-76
2024/03/28 05:00:37;;;;;;;7.40;1.75;;;7.80;99.90;;;;;;4946854;28;20027;-77
2024/03/28 05:03:04;;;;;;;3.47;1.75;;;7.90;99.90;;;;;;4964243;28;20027;-77
2024/03/28 05:05:29;;;;;;;6.80;1.60;;;7.90;99.90;;;;;;4961001;28;20039;-77
2024/03/28 05:07:55;;;;;;;8.43;2.30;;;7.90;99.90;;;;;;4963753;28;20031;-77
2024/03/28 05:10:21;;;;;;;7.68;2.15;;;7.90;99.90;;;;;;4961289;28;20099;-77
2024/03/28 05:12:47;;;;;;;5.20;2.42;;;7.90;99.90;;;;;;4964592;28;20030;-77
2024/03/28 05:15:12;;;;;;;5.10;2.03;;;7.90;99.90;;;;;;4947221;28;20019;-77
2024/03/28 05:17:41;;;;;;;10.02;1.92;;;7.90;99.90;;;;;;4963810;28;20078;-77
2024/03/28 05:20:07;;;;;;;8.18;1.85;;;7.90;99.90;;;;;;4965886;28;20062;-77
2024/03/28 05:22:33;;;;;;;8.25;1.88;;;8.00;99.90;;;;;;4965686;28;20031;-77
2024/03/28 05:24:59;;;;;;;3.30;1.63;;;7.90;99.90;;;;;;4966294;28;20081;-77
2024/03/28 05:27:24;;;;;;;3.50;1.65;;;7.80;99.90;;;;;;4968046;28;20062;-77
2024/03/28 05:29:50;;;;;;;7.72;2.08;;;7.90;99.90;;;;;;4963763;28;20028;-77
2024/03/28 05:32:16;;;;;;;6.30;2.35;;;7.90;99.90;;;;;;4967321;28;20077;-77
2024/03/28 05:34:42;;;;;;;7.20;1.83;;;7.90;99.90;;;;;;4963877;28;20024;-77
2024/03/28 05:37:08;;;;;;;5.78;1.70;;;7.90;99.90;;;;;;4963886;28;20157;-77
2024/03/28 05:39:34;;;;;;;4.60;2.15;;;7.90;99.90;;;;;;4967356;28;20045;-77
2024/03/28 05:42:00;;;;;;;3.90;1.70;;;7.90;99.90;;;;;;4947225;28;20030;-77
2024/03/28 05:44:26;;;;;;;4.00;1.73;;;8.00;99.90;;;;;;4949862;28;20023;-77
2024/03/28 05:46:52;;;;;;;5.38;1.73;;;8.10;99.90;;;;;;4964752;28;20069;-77
2024/03/28 05:49:17;;;;;;;10.45;2.17;;;8.10;99.90;;;;;;4948501;28;20027;-76
2024/03/28 05:51:43;;;;;;;4.78;2.22;;;8.10;99.90;;;;;;4947857;28;20026;-77
2024/03/28 05:54:09;;;;;;;3.47;2.13;;;8.10;99.90;;;;;;4962464;28;20030;-76
2024/03/28 05:56:34;;;;;;;4.80;1.67;;;8.10;99.90;;;;;;4973836;28;20030;-77
2024/03/28 05:59:00;;;;;;;5.05;1.75;;;8.20;99.90;;;;;;4976434;28;20030;-77
2024/03/28 06:01:26;;;;;;;4.78;1.52;;;8.20;99.90;;;;;;4958999;28;20174;-77
2024/03/28 06:03:52;;;;;;;4.00;1.77;;;8.30;99.90;;;;;;4976361;28;20501;-77
2024/03/28 06:06:17;;;;;;;5.35;1.90;;;8.30;99.90;;;;;;4958935;28;20038;-76
2024/03/28 06:08:43;;;;;;;4.90;2.03;;;8.30;99.90;;;;;;4958305;28;20114;-77
2024/03/28 06:11:09;;;;;;;3.08;1.52;;;8.40;99.90;;;;;;4949907;28;20118;-77
2024/03/28 06:13:35;;;;;;;5.72;1.83;;;8.40;99.90;;;;;;4969102;28;20091;-77
2024/03/28 06:16:01;;;;;;;4.38;1.70;;;8.50;99.90;;;;;;4964866;28;20490;-77
2024/03/28 06:18:30;;;;;;;3.53;2.17;;;8.50;99.90;;;;;;4966657;28;20023;-76
2024/03/28 06:20:59;;;;;;;8.63;1.88;;;8.60;99.90;;;;;;4968562;28;20023;-77
2024/03/28 06:23:25;;;;;;;6.90;2.00;;;8.60;99.90;;;;;;4949824;28;20031;-77
2024/03/28 06:25:51;;;;;;;6.07;2.13;;;8.60;99.90;;;;;;4966111;28;20027;-76
2024/03/28 06:28:20;;;;;;;3.65;1.55;;;8.70;99.90;;;;;;4949725;28;20037;-77
2024/03/28 06:30:53;;;;;;;6.70;1.88;;;8.80;99.90;;;;;;4967047;28;20029;-77
2024/03/28 06:33:22;;;;;;;8.63;2.63;;;8.90;99.90;;;;;;4964173;28;20049;-77
2024/03/28 06:35:48;;;;;;;7.22;3.65;;;8.80;99.90;;;;;;4941632;29;20031;-77
2024/03/28 06:38:14;;;;;;;5.63;2.75;;;8.80;99.90;;;;;;4962416;28;21168;-76
2024/03/28 06:40:41;;;;;;;6.20;2.90;;;8.70;99.90;;;;;;4975782;28;20056;-77
2024/03/28 06:43:07;;;;;;;6.35;2.97;;;8.80;99.90;;;;;;4966397;28;20118;-76
2024/03/28 06:45:32;;;;;;;4.68;2.80;;;8.80;99.90;;;;;;4966618;28;20146;-76
2024/03/28 06:47:58;;;;;;;6.53;3.03;;;8.80;99.90;;;;;;4975440;28;20118;-76
2024/03/28 06:50:24;;;;;;;12.55;3.47;;;8.90;99.90;;;;;;4957427;28;20744;-76
2024/03/28 06:52:52;;;;;;;7.88;3.17;;;8.80;99.90;;;;;;4961443;28;20392;-76
2024/03/28 06:55:18;;;;;;;8.38;3.38;;;8.80;99.90;;;;;;4964102;28;20034;-76
2024/03/28 06:57:44;;;;;;;8.63;3.00;;;8.80;99.90;;;;;;4944562;28;20093;-76
2024/03/28 07:00:10;;;;;;;5.40;3.15;;;8.70;99.90;;;;;;4963954;28;20114;-76
2024/03/28 07:02:36;;;;;;;4.95;2.95;;;8.80;99.90;;;;;;4961611;28;20035;-76
2024/03/28 07:05:02;;;;;;;10.05;2.80;;;8.80;99.90;;;;;;4965302;28;20498;-77
2024/03/28 07:07:29;;;;;;;7.30;2.97;;;9.00;99.90;;;;;;4961504;28;20557;-76
2024/03/28 07:09:55;;;;;;;5.10;2.38;;;8.90;99.90;;;;;;4963864;28;20026;-76
2024/03/28 07:12:21;;;;;;;7.13;2.60;;;9.00;99.90;;;;;;4964544;28;20114;-77
2024/03/28 07:14:47;;;;;;;6.32;2.83;;;9.10;99.90;;;;;;4963131;28;20610;-76
2024/03/28 07:17:13;;;;;;;4.72;2.40;;;9.20;99.90;;;;;;4963293;28;20043;-76
2024/03/28 07:19:38;;;;;;;5.03;2.80;;;9.20;99.90;;;;;;4961238;28;20490;-76
2024/03/28 07:22:04;;;;;;;10.40;2.88;;;9.30;99.90;;;;;;4964263;28;20272;-76
2024/03/28 07:24:30;;;;;;;4.88;2.83;;;9.20;99.90;;;;;;4962714;28;20035;-76
2024/03/28 07:26:55;;;;;;;8.27;3.00;;;9.20;99.90;;;;;;4965192;28;20022;-76
2024/03/28 07:29:21;;;;;;;18.52;3.42;;;9.20;99.90;;;;;;4965464;28;20038;-76
2024/03/28 07:31:47;;;;;;;8.05;2.67;;;9.20;99.90;;;;;;4961898;28;20031;-76
2024/03/28 07:34:13;;;;;;;4.78;2.88;;;9.30;99.90;;;;;;4951798;28;20122;-76
2024/03/28 07:36:39;;;;;;;7.80;3.45;;;9.30;99.90;;;;;;4962373;28;20490;-76
2024/03/28 07:39:04;;;;;;;5.90;3.13;;;9.20;99.90;;;;;;4964286;28;20043;-76
2024/03/28 07:41:30;;;;;;;3.72;3.42;;;9.10;99.90;;;;;;4962325;28;20100;-76
2024/03/28 07:43:56;;;;;;;13.55;3.72;;;9.20;99.90;;;;;;4963625;28;20122;-77
2024/03/28 07:46:24;;;;;;;7.07;3.67;;;9.20;99.90;;;;;;4965421;28;20049;-77
2024/03/28 07:48:51;;;;;;;5.45;3.28;;;9.20;99.90;;;;;;4963153;28;20035;-76
2024/03/28 07:51:20;;;;;;;5.75;3.92;;;9.20;99.90;;;;;;4946104;28;20479;-76
2024/03/28 07:53:46;;;;;;;6.28;3.35;;;9.30;99.90;;;;;;4945747;28;20085;-76
2024/03/28 07:56:11;;;;;;;5.18;3.28;;;9.30;99.90;;;;;;4963832;28;20027;-76
2024/03/28 07:58:37;;;;;;;9.13;3.90;;;9.30;99.90;;;;;;4963083;28;20475;-76
2024/03/28 08:01:04;;;;;;;8.02;3.83;;;9.30;99.90;;;;;;4964465;28;20035;-76
2024/03/28 08:03:33;;;;;;;9.20;4.75;;;9.40;99.90;;;;;;4951701;28;20027;-76
2024/03/28 08:05:59;;;;;;;9.00;4.65;;;9.40;99.90;;;;;;4961720;28;20530;-76
2024/03/28 08:08:25;;;;;;;8.25;4.78;;;9.40;99.90;;;;;;4964659;28;20169;-76
2024/03/28 08:10:50;;;;;;;8.52;4.95;;;9.40;99.90;;;;;;4959882;28;20114;-76
2024/03/28 08:13:16;;;;;;;6.65;4.38;;;9.50;99.90;;;;;;4952819;28;20026;-76
2024/03/28 08:15:42;;;;;;;6.05;4.80;;;9.40;99.90;;;;;;4961712;28;20030;-76
2024/03/28 08:18:08;;;;;;;7.25;5.53;;;9.50;99.90;;;;;;4964027;28;20511;-76
2024/03/28 08:20:33;;;;;;;15.05;8.20;;;9.50;99.90;;;;;;4944791;28;20031;-76
2024/03/28 08:22:59;;;;;;;12.60;6.63;;;9.60;99.90;;;;;;4961348;28;20428;-76
2024/03/28 08:25:25;;;;;;;9.05;4.70;;;9.70;99.90;;;;;;4960618;28;20114;-76
2024/03/28 08:27:52;;;;;;;9.50;4.40;;;9.70;99.90;;;;;;4940947;28;20499;-75
2024/03/28 08:30:19;;;;;;;6.82;3.30;;;9.70;99.90;;;;;;4956801;28;20101;-76
2024/03/28 08:32:45;;;;;;;5.85;2.60;;;9.60;99.90;;;;;;4958160;28;20023;-76
2024/03/28 08:35:11;;;;;;;4.80;3.25;;;9.70;99.90;;;;;;4959581;28;20018;-76
2024/03/28 08:37:39;;;;;;;10.93;6.30;;;9.80;99.90;;;;;;4956879;28;20027;-75
2024/03/28 08:40:09;;;;;;;5.90;3.05;;;9.80;99.90;;;;;;4943702;28;20027;-76
2024/03/28 08:42:38;;;;;;;6.05;4.25;;;9.80;99.90;;;;;;4961477;28;20320;-76
2024/03/28 08:45:05;;;;;;;9.40;6.03;;;9.90;99.90;;;;;;4958146;28;20046;-76
2024/03/28 08:47:31;;;;;;;7.53;4.78;;;9.80;99.90;;;;;;4960146;28;20030;-75
2024/03/28 08:49:57;;;;;;;4.40;2.67;;;9.90;99.90;;;;;;4944044;28;20352;-75
2024/03/28 08:52:23;;;;;;;8.80;5.03;;;9.80;99.90;;;;;;4959158;28;20038;-76
2024/03/28 08:54:48;;;;;;;9.57;3.33;;;9.70;99.90;;;;;;4965128;28;20034;-75
2024/03/28 08:57:14;;;;;;;4.00;2.28;;;9.80;99.90;;;;;;4946211;28;20027;-77
2024/03/28 08:59:40;;;;;;;7.60;2.22;;;9.80;99.90;;;;;;4963667;28;20026;-76
2024/03/28 09:02:07;;;;;;;3.65;2.42;;;9.80;99.90;;;;;;4944515;28;20050;-76
2024/03/28 09:04:33;;;;;;;5.53;3.00;;;9.80;99.90;;;;;;4962422;28;20027;-76
2024/03/28 09:06:59;;;;;;;6.82;3.83;;;9.80;99.90;;;;;;4961941;28;20022;-76
2024/03/28 09:09:25;;;;;;;5.30;2.58;;;9.90;99.90;;;;;;4944809;28;20028;-76
2024/03/28 09:11:51;;;;;;;5.22;2.65;;;9.90;99.90;;;;;;4962015;28;20023;-77
2024/03/28 09:14:17;;;;;;;3.63;2.20;;;9.90;99.90;;;;;;4945735;28;20391;-76
2024/03/28 09:16:42;;;;;;;6.05;2.47;;;9.80;99.90;;;;;;4962514;28;20098;-76
2024/03/28 09:19:08;;;;;;;4.40;2.00;;;9.80;99.90;;;;;;4963821;28;20034;-76
2024/03/28 09:21:34;;;;;;;3.10;1.85;;;9.90;99.90;;;;;;4961104;28;20023;-76
2024/03/28 09:24:01;;;;;;;3.67;2.00;;;10.00;99.90;;;;;;4962968;28;20375;-77
2024/03/28 09:26:26;;;;;;;10.00;5.53;;;10.00;99.90;;;;;;4945057;29;20268;-76
2024/03/28 09:28:58;;;;;;;3.03;2.70;;;10.00;99.90;;;;;;4951314;28;20119;-76
2024/03/28 09:31:26;;;;;;;3.30;1.80;;;10.00;99.90;;;;;;4964368;28;20073;-77
2024/03/28 09:33:52;;;;;;;3.33;1.80;;;10.00;99.90;;;;;;4962835;28;20028;-76
2024/03/28 09:36:18;;;;;;;1.55;1.20;;;10.00;99.90;;;;;;4967561;28;20023;-77
2024/03/28 09:38:50;;;;;;;2.45;1.60;;;9.90;99.90;;;;;;4946175;28;20045;-77
2024/03/28 09:41:29;;;;;;;4.05;2.92;;;9.90;99.90;;;;;;4964071;28;20020;-76
2024/03/28 09:44:06;;;;;;;1.63;1.52;;;9.90;99.90;;;;;;4950428;28;20034;-77
2024/03/28 09:46:33;;;;;;;2.45;1.95;;;10.00;99.90;;;;;;4964717;28;20055;-76
2024/03/28 09:49:06;;;;;;;3.85;1.67;;;10.00;99.90;;;;;;4967320;28;20027;-76
2024/03/28 09:51:33;;;;;;;4.18;1.50;;;10.00;99.90;;;;;;4964545;28;20033;-77
2024/03/28 09:54:01;;;;;;;3.03;1.42;;;10.00;99.90;;;;;;4950337;28;20027;-76
2024/03/28 09:56:27;;;;;;;2.88;1.40;;;10.00;99.90;;;;;;4948783;28;20510;-76
2024/03/28 09:58:52;;;;;;;2.53;1.25;;;10.00;99.90;;;;;;4964993;28;20031;-76
2024/03/28 10:01:18;;;;;;;2.38;1.30;;;10.10;99.90;;;;;;4963691;28;20037;-77
2024/03/28 10:03:53;;;;;;;1.13;1.10;;;10.20;99.90;;;;;;4964271;28;20031;-77
2024/03/28 10:06:20;;;;;;;2.67;1.30;;;10.20;99.90;;;;;;4964571;28;20511;-77
2024/03/28 10:08:46;;;;;;;1.63;1.50;;;10.30;99.90;;;;;;4966448;28;20422;-77
2024/03/28 10:11:12;;;;;;;2.63;1.65;;;10.30;99.90;;;;;;4967025;28;20051;-77
2024/03/28 10:13:38;;;;;;;5.20;4.30;;;10.40;99.90;;;;;;4963135;28;21123;-77
2024/03/28 10:16:12;;;;;;;4.25;3.85;;;10.40;99.90;;;;;;4965415;28;20034;-77
2024/03/28 10:18:39;;;;;;;6.68;4.65;;;10.40;99.90;;;;;;4963982;28;20035;-77
2024/03/28 10:21:05;;;;;;;4.20;3.88;;;10.50;99.90;;;;;;4947532;28;20034;-77
2024/03/28 10:23:31;;;;;;;5.38;3.20;;;10.50;99.90;;;;;;4963160;28;20039;-77
2024/03/28 10:25:58;;;;;;;4.15;2.40;;;10.50;99.90;;;;;;4947306;28;20031;-77
2024/03/28 10:28:29;;;;;;;2.83;1.92;;;10.50;99.90;;;;;;4945360;28;20031;-77
2024/03/28 10:30:57;;;;;;;1.85;1.75;;;10.60;99.90;;;;;;4955329;28;20356;-77
2024/03/28 10:33:24;;;;;;;2.05;1.92;;;10.60;99.90;;;;;;4947490;28;20443;-77
2024/03/28 10:36:00;;;;;;;2.35;1.90;;;10.60;99.90;;;;;;4964073;28;20019;-77
2024/03/28 10:38:26;;;;;;;2.45;1.95;;;10.50;99.90;;;;;;4963890;28;20066;-76
2024/03/28 10:40:58;;;;;;;3.88;1.60;;;10.50;99.90;;;;;;4947727;28;20514;-76
2024/03/28 10:43:28;;;;;;;3.00;1.67;;;10.50;99.90;;;;;;4966195;28;20039;-76
2024/03/28 10:46:02;;;;;;;1.65;1.55;;;10.50;99.90;;;;;;4963233;28;20102;-76
2024/03/28 10:48:31;;;;;;;1.80;1.67;;;10.40;99.90;;;;;;4961447;28;20466;-76
2024/03/28 10:51:18;;;;;;;1.38;1.38;;;10.30;99.90;;;;;;4966015;28;20463;-76
2024/03/28 10:54:02;;;;;;;0.80;0.80;;;10.30;99.90;;;;;;4952037;29;20028;-76
2024/03/28 10:56:31;;;;;;;0.70;0.70;;;10.30;99.90;;;;;;4950806;28;20475;-76
2024/03/28 10:59:00;;;;;;;2.53;2.13;;;10.30;99.90;;;;;;4948358;28;20031;-76
2024/03/28 11:01:29;;;;;;;2.00;1.67;;;10.40;99.90;;;;;;4962565;28;20101;-76
2024/03/28 11:03:58;;;;;;;2.58;2.35;;;10.50;99.90;;;;;;4945844;28;20039;-76
2024/03/28 11:06:25;;;;;;;1.70;1.60;;;10.50;99.90;;;;;;4947610;28;20078;-76
2024/03/28 11:08:53;;;;;;;2.03;1.92;;;10.50;99.90;;;;;;4944797;28;20031;-76
2024/03/28 11:11:19;;;;;;;2.38;1.80;;;10.50;99.90;;;;;;4962852;28;20078;-76
2024/03/28 11:13:45;;;;;;;1.10;1.10;;;10.60;99.90;;;;;;4963371;28;20026;-76
2024/03/28 11:16:12;;;;;;;2.97;1.30;;;10.50;99.90;;;;;;4961257;28;20430;-77
2024/03/28 11:18:39;;;;;;;2.60;1.10;;;10.60;99.90;;;;;;4962191;28;20046;-76
2024/03/28 11:21:06;;;;;;;1.35;1.25;;;10.60;99.90;;;;;;4962204;28;20501;-76
2024/03/28 11:23:33;;;;;;;0.90;0.90;;;10.60;99.90;;;;;;4960842;28;20039;-77
2024/03/28 11:26:10;;;;;;;3.85;1.05;;;10.60;99.90;;;;;;4965465;28;20031;-76
2024/03/28 11:28:44;;;;;;;1.92;1.20;;;10.60;99.90;;;;;;4945676;28;20035;-76
2024/03/28 11:31:13;;;;;;;1.95;0.90;;;10.60;99.90;;;;;;4942624;28;20035;-76
2024/03/28 11:33:39;;;;;;;1.48;0.90;;;10.60;99.90;;;;;;4941773;28;20391;-76
2024/03/28 11:36:07;;;;;;;1.10;1.00;;;10.70;99.90;;;;;;4959222;28;20020;-75
2024/03/28 11:38:34;;;;;;;3.00;1.00;;;10.70;99.90;;;;;;4960085;28;20023;-76
2024/03/28 11:41:00;;;;;;;1.20;1.10;;;10.80;99.90;;;;;;4963771;28;20030;-76
2024/03/28 11:43:27;;;;;;;3.22;1.30;;;10.80;99.90;;;;;;4958062;28;20090;-76
2024/03/28 11:46:00;;;;;;;1.77;1.45;;;10.80;99.90;;;;;;4959849;28;20042;-76
2024/03/28 11:48:28;;;;;;;3.53;2.78;;;10.80;99.90;;;;;;4957952;28;20081;-76
2024/03/28 11:50:55;;;;;;;8.20;7.35;;;10.90;99.90;;;;;;4960570;28;20105;-76
2024/03/28 11:53:21;;;;;;;5.30;3.15;;;10.90;99.90;;;;;;4957347;28;20110;-76
2024/03/28 11:55:48;;;;;;;2.20;1.05;;;10.90;99.90;;;;;;4942848;28;20556;-76
2024/03/28 11:58:24;;;;;;;2.05;1.83;;;10.90;99.90;;;;;;4957965;28;20027;-76
2024/03/28 12:00:56;;;;;;;3.67;2.13;;;11.00;99.90;;;;;;4943995;28;20023;-76
2024/03/28 12:03:22;;;;;;;1.25;1.23;;;11.10;99.90;;;;;;4942415;28;20062;-76
2024/03/28 12:05:49;;;;;;;2.17;1.20;;;11.10;99.90;;;;;;4945197;28;20078;-76
2024/03/28 12:08:15;;;;;;;1.35;1.25;;;11.10;99.90;;;;;;4959666;28;20037;-76
2024/03/28 12:10:44;;;;;;;6.10;5.40;;;11.10;99.90;;;;;;4957934;28;20392;-76
2024/03/28 12:13:09;;;;;;;11.13;9.93;;;11.10;99.90;;;;;;4960861;28;20038;-76
2024/03/28 12:15:38;;;;;;;9.70;8.75;;;11.10;99.90;;;;;;4942275;28;20035;-76
2024/03/28 12:18:04;;;;;;;5.82;5.40;;;11.10;99.90;;;;;;4959258;28;20027;-76
2024/03/28 12:20:30;;;;;;;1.63;1.52;;;11.20;99.90;;;;;;4943931;28;20034;-76
2024/03/28 12:23:03;;;;;;;2.35;2.25;;;11.20;99.90;;;;;;4963809;28;20039;-76
2024/03/28 12:25:30;;;;;;;3.30;3.00;;;11.20;99.90;;;;;;4953465;28;20034;-77
2024/03/28 12:28:01;;;;;;;2.05;1.90;;;11.20;99.90;;;;;;4956922;28;20459;-75
2024/03/28 12:30:30;;;;;;;2.70;2.47;;;11.30;99.90;;;;;;4970385;28;20019;-76
2024/03/28 12:33:04;;;;;;;3.25;2.95;;;11.30;99.90;;;;;;4971438;28;20015;-76
2024/03/28 12:35:30;;;;;;;3.38;3.17;;;11.30;99.90;;;;;;4961104;28;20163;-76
2024/03/28 12:37:56;;;;;;;3.72;3.42;;;11.30;99.90;;;;;;4953350;28;20023;-75
2024/03/28 12:40:24;;;;;;;6.43;5.82;;;11.30;99.90;;;;;;4953807;28;20053;-76
2024/03/28 12:42:51;;;;;;;7.07;6.38;;;11.20;99.90;;;;;;4970611;28;20037;-76
2024/03/28 12:45:18;;;;;;;6.97;6.38;;;11.20;99.90;;;;;;4971105;28;20150;-76
2024/03/28 12:47:48;;;;;;;3.85;3.58;;;11.30;99.90;;;;;;4971442;28;20031;-76
2024/03/28 12:50:16;;;;;;;4.63;4.20;;;11.30;99.90;;;;;;4971227;28;20027;-76
2024/03/28 12:52:52;;;;;;;4.75;3.90;;;11.30;99.90;;;;;;4949202;28;20046;-76
2024/03/28 12:55:19;;;;;;;4.07;3.67;;;11.40;99.90;;;;;;4971058;28;20031;-76
2024/03/28 12:57:48;;;;;;;4.28;3.50;;;11.40;99.90;;;;;;4963191;28;20036;-75